sensor_id;sensor_type;location;lat;lon;timestamp;P1;durP1;ratioP1;P2;durP2;ratioP2
7667;SDS011;3876;42.204;24.686;2022-08-16T00:01:27;11.43;;;10.53;;
7667;SDS011;3876;42.204;24.686;2022-08-16T00:03:55;11.10;;;10.10;;
7667;SDS011;3876;42.204;24.686;2022-08-16T00:06:23;11.40;;;10.50;;
7667;SDS011;3876;42.204;24.686;2022-08-16T00:08:51;13.00;;;11.77;;
7667;SDS011;3876;42.204;24.686;2022-08-16T00:11:18;12.00;;;11.07;;
7667;SDS011;3876;42.204;24.686;2022-08-16T00:13:47;10.60;;;9.73;;
7667;SDS011;3876;42.204;24.686;2022-08-16T00:16:15;11.10;;;10.20;;
7667;SDS011;3876;42.204;24.686;2022-08-16T00:18:42;12.60;;;11.60;;
7667;SDS011;3876;42.204;24.686;2022-08-16T00:21:10;12.07;;;10.97;;
7667;SDS011;3876;42.204;24.686;2022-08-16T00:23:36;11.47;;;10.60;;
7667;SDS011;3876;42.204;24.686;2022-08-16T00:26:03;10.70;;;9.90;;
7667;SDS011;3876;42.204;24.686;2022-08-16T00:28:30;10.87;;;10.07;;
7667;SDS011;3876;42.204;24.686;2022-08-16T00:30:58;11.17;;;10.23;;
7667;SDS011;3876;42.204;24.686;2022-08-16T00:33:25;11.23;;;10.13;;
7667;SDS011;3876;42.204;24.686;2022-08-16T00:35:52;14.27;;;10.03;;
7667;SDS011;3876;42.204;24.686;2022-08-16T00:38:18;10.90;;;9.90;;
7667;SDS011;3876;42.204;24.686;2022-08-16T00:40:46;10.70;;;9.87;;
7667;SDS011;3876;42.204;24.686;2022-08-16T00:43:17;11.90;;;10.83;;
7667;SDS011;3876;42.204;24.686;2022-08-16T00:45:49;12.30;;;11.10;;
7667;SDS011;3876;42.204;24.686;2022-08-16T00:48:22;12.03;;;11.13;;
7667;SDS011;3876;42.204;24.686;2022-08-16T00:50:50;11.77;;;10.77;;
7667;SDS011;3876;42.204;24.686;2022-08-16T00:53:17;11.17;;;10.27;;
7667;SDS011;3876;42.204;24.686;2022-08-16T00:55:45;11.80;;;10.80;;
7667;SDS011;3876;42.204;24.686;2022-08-16T00:58:14;11.83;;;10.83;;
7667;SDS011;3876;42.204;24.686;2022-08-16T01:00:43;12.80;;;11.77;;
7667;SDS011;3876;42.204;24.686;2022-08-16T01:03:12;15.20;;;11.43;;
7667;SDS011;3876;42.204;24.686;2022-08-16T01:05:43;13.27;;;11.87;;
7667;SDS011;3876;42.204;24.686;2022-08-16T01:08:11;12.63;;;11.63;;
7667;SDS011;3876;42.204;24.686;2022-08-16T01:10:39;12.20;;;10.87;;
7667;SDS011;3876;42.204;24.686;2022-08-16T01:13:07;12.33;;;11.23;;
7667;SDS011;3876;42.204;24.686;2022-08-16T01:15:37;12.93;;;11.80;;
7667;SDS011;3876;42.204;24.686;2022-08-16T01:18:07;11.23;;;10.40;;
7667;SDS011;3876;42.204;24.686;2022-08-16T01:20:39;12.43;;;11.33;;
7667;SDS011;3876;42.204;24.686;2022-08-16T01:23:13;12.07;;;11.07;;
7667;SDS011;3876;42.204;24.686;2022-08-16T01:25:46;11.87;;;10.70;;
7667;SDS011;3876;42.204;24.686;2022-08-16T01:28:17;11.43;;;10.53;;
7667;SDS011;3876;42.204;24.686;2022-08-16T01:30:46;12.67;;;11.47;;
7667;SDS011;3876;42.204;24.686;2022-08-16T01:33:18;12.40;;;11.30;;
7667;SDS011;3876;42.204;24.686;2022-08-16T01:35:47;12.93;;;11.63;;
7667;SDS011;3876;42.204;24.686;2022-08-16T01:38:18;12.67;;;11.40;;
7667;SDS011;3876;42.204;24.686;2022-08-16T01:40:48;12.27;;;11.03;;
7667;SDS011;3876;42.204;24.686;2022-08-16T01:43:17;12.07;;;11.17;;
7667;SDS011;3876;42.204;24.686;2022-08-16T01:45:44;11.70;;;10.63;;
7667;SDS011;3876;42.204;24.686;2022-08-16T01:48:11;12.27;;;11.27;;
7667;SDS011;3876;42.204;24.686;2022-08-16T01:50:39;12.40;;;11.37;;
7667;SDS011;3876;42.204;24.686;2022-08-16T01:53:08;11.90;;;11.00;;
7667;SDS011;3876;42.204;24.686;2022-08-16T01:55:35;11.60;;;10.60;;
7667;SDS011;3876;42.204;24.686;2022-08-16T01:58:04;12.23;;;11.17;;
7667;SDS011;3876;42.204;24.686;2022-08-16T02:00:31;12.43;;;11.27;;
7667;SDS011;3876;42.204;24.686;2022-08-16T02:02:58;11.93;;;10.87;;
7667;SDS011;3876;42.204;24.686;2022-08-16T02:05:26;12.63;;;11.60;;
7667;SDS011;3876;42.204;24.686;2022-08-16T02:07:53;11.10;;;10.20;;
7667;SDS011;3876;42.204;24.686;2022-08-16T02:10:22;12.80;;;10.20;;
7667;SDS011;3876;42.204;24.686;2022-08-16T02:12:49;12.07;;;11.07;;
7667;SDS011;3876;42.204;24.686;2022-08-16T02:15:18;12.80;;;11.50;;
7667;SDS011;3876;42.204;24.686;2022-08-16T02:17:46;12.93;;;11.77;;
7667;SDS011;3876;42.204;24.686;2022-08-16T02:20:13;13.30;;;12.13;;
7667;SDS011;3876;42.204;24.686;2022-08-16T02:22:43;11.40;;;10.60;;
7667;SDS011;3876;42.204;24.686;2022-08-16T02:25:11;12.10;;;11.20;;
7667;SDS011;3876;42.204;24.686;2022-08-16T02:27:40;11.53;;;10.30;;
7667;SDS011;3876;42.204;24.686;2022-08-16T02:30:09;13.20;;;12.00;;
7667;SDS011;3876;42.204;24.686;2022-08-16T02:32:40;12.57;;;11.50;;
7667;SDS011;3876;42.204;24.686;2022-08-16T02:35:08;11.67;;;10.63;;
7667;SDS011;3876;42.204;24.686;2022-08-16T02:37:35;11.83;;;10.73;;
7667;SDS011;3876;42.204;24.686;2022-08-16T02:40:03;11.70;;;10.70;;
7667;SDS011;3876;42.204;24.686;2022-08-16T02:42:31;12.20;;;11.10;;
7667;SDS011;3876;42.204;24.686;2022-08-16T02:44:57;12.27;;;11.13;;
7667;SDS011;3876;42.204;24.686;2022-08-16T02:47:24;12.03;;;11.10;;
7667;SDS011;3876;42.204;24.686;2022-08-16T02:49:53;11.97;;;10.93;;
7667;SDS011;3876;42.204;24.686;2022-08-16T02:52:19;12.10;;;11.03;;
7667;SDS011;3876;42.204;24.686;2022-08-16T02:54:46;15.23;;;12.13;;
7667;SDS011;3876;42.204;24.686;2022-08-16T02:57:13;10.90;;;10.00;;
7667;SDS011;3876;42.204;24.686;2022-08-16T02:59:40;11.33;;;10.40;;
7667;SDS011;3876;42.204;24.686;2022-08-16T03:02:07;13.37;;;11.97;;
7667;SDS011;3876;42.204;24.686;2022-08-16T03:04:35;13.27;;;12.13;;
7667;SDS011;3876;42.204;24.686;2022-08-16T03:07:03;19.27;;;12.73;;
7667;SDS011;3876;42.204;24.686;2022-08-16T03:09:31;12.60;;;11.57;;
7667;SDS011;3876;42.204;24.686;2022-08-16T03:11:58;12.50;;;11.37;;
7667;SDS011;3876;42.204;24.686;2022-08-16T03:14:25;12.13;;;11.17;;
7667;SDS011;3876;42.204;24.686;2022-08-16T03:16:53;16.57;;;11.70;;
7667;SDS011;3876;42.204;24.686;2022-08-16T03:19:20;12.00;;;11.00;;
7667;SDS011;3876;42.204;24.686;2022-08-16T03:21:47;13.83;;;12.63;;
7667;SDS011;3876;42.204;24.686;2022-08-16T03:24:15;12.77;;;11.57;;
7667;SDS011;3876;42.204;24.686;2022-08-16T03:26:42;13.60;;;12.50;;
7667;SDS011;3876;42.204;24.686;2022-08-16T03:29:09;12.33;;;11.33;;
7667;SDS011;3876;42.204;24.686;2022-08-16T03:31:36;14.23;;;12.80;;
7667;SDS011;3876;42.204;24.686;2022-08-16T03:34:03;12.97;;;11.77;;
7667;SDS011;3876;42.204;24.686;2022-08-16T03:36:30;13.70;;;12.43;;
7667;SDS011;3876;42.204;24.686;2022-08-16T03:38:57;13.43;;;12.07;;
7667;SDS011;3876;42.204;24.686;2022-08-16T03:41:25;13.33;;;12.03;;
7667;SDS011;3876;42.204;24.686;2022-08-16T03:43:52;12.27;;;11.23;;
7667;SDS011;3876;42.204;24.686;2022-08-16T03:46:20;13.00;;;11.93;;
7667;SDS011;3876;42.204;24.686;2022-08-16T03:48:47;12.30;;;11.10;;
7667;SDS011;3876;42.204;24.686;2022-08-16T03:51:15;12.47;;;11.50;;
7667;SDS011;3876;42.204;24.686;2022-08-16T03:53:43;12.83;;;11.50;;
7667;SDS011;3876;42.204;24.686;2022-08-16T03:56:10;14.03;;;12.73;;
7667;SDS011;3876;42.204;24.686;2022-08-16T03:58:38;15.80;;;11.93;;
7667;SDS011;3876;42.204;24.686;2022-08-16T04:01:05;12.20;;;11.30;;
7667;SDS011;3876;42.204;24.686;2022-08-16T04:03:32;13.17;;;11.97;;
7667;SDS011;3876;42.204;24.686;2022-08-16T04:05:59;12.73;;;11.53;;
7667;SDS011;3876;42.204;24.686;2022-08-16T04:08:26;12.47;;;11.47;;
7667;SDS011;3876;42.204;24.686;2022-08-16T04:10:55;12.30;;;11.20;;
7667;SDS011;3876;42.204;24.686;2022-08-16T04:13:23;14.63;;;12.13;;
7667;SDS011;3876;42.204;24.686;2022-08-16T04:15:52;13.20;;;11.90;;
7667;SDS011;3876;42.204;24.686;2022-08-16T04:18:20;12.10;;;10.90;;
7667;SDS011;3876;42.204;24.686;2022-08-16T04:20:48;11.87;;;10.97;;
7667;SDS011;3876;42.204;24.686;2022-08-16T04:23:15;11.93;;;11.00;;
7667;SDS011;3876;42.204;24.686;2022-08-16T04:25:41;14.63;;;12.07;;
7667;SDS011;3876;42.204;24.686;2022-08-16T04:28:08;13.87;;;12.47;;
7667;SDS011;3876;42.204;24.686;2022-08-16T04:30:35;12.87;;;11.57;;
7667;SDS011;3876;42.204;24.686;2022-08-16T04:33:05;14.43;;;12.83;;
7667;SDS011;3876;42.204;24.686;2022-08-16T04:35:32;11.83;;;10.80;;
7667;SDS011;3876;42.204;24.686;2022-08-16T04:38:00;12.33;;;11.30;;
7667;SDS011;3876;42.204;24.686;2022-08-16T04:40:27;12.60;;;11.00;;
7667;SDS011;3876;42.204;24.686;2022-08-16T04:42:54;12.07;;;10.70;;
7667;SDS011;3876;42.204;24.686;2022-08-16T04:45:21;10.80;;;9.93;;
7667;SDS011;3876;42.204;24.686;2022-08-16T04:47:48;10.37;;;9.47;;
7667;SDS011;3876;42.204;24.686;2022-08-16T04:50:17;13.33;;;10.87;;
7667;SDS011;3876;42.204;24.686;2022-08-16T04:52:46;11.73;;;10.63;;
7667;SDS011;3876;42.204;24.686;2022-08-16T04:55:15;12.00;;;11.00;;
7667;SDS011;3876;42.204;24.686;2022-08-16T04:57:44;11.73;;;10.83;;
7667;SDS011;3876;42.204;24.686;2022-08-16T05:00:14;13.10;;;10.93;;
7667;SDS011;3876;42.204;24.686;2022-08-16T05:02:43;14.23;;;11.03;;
7667;SDS011;3876;42.204;24.686;2022-08-16T05:05:10;10.53;;;9.53;;
7667;SDS011;3876;42.204;24.686;2022-08-16T05:07:39;10.73;;;9.87;;
7667;SDS011;3876;42.204;24.686;2022-08-16T05:10:06;11.73;;;10.53;;
7667;SDS011;3876;42.204;24.686;2022-08-16T05:12:35;11.40;;;10.23;;
7667;SDS011;3876;42.204;24.686;2022-08-16T05:15:03;11.07;;;10.07;;
7667;SDS011;3876;42.204;24.686;2022-08-16T05:17:31;11.33;;;10.50;;
7667;SDS011;3876;42.204;24.686;2022-08-16T05:19:58;9.93;;;9.13;;
7667;SDS011;3876;42.204;24.686;2022-08-16T05:22:25;11.37;;;10.23;;
7667;SDS011;3876;42.204;24.686;2022-08-16T05:24:55;9.90;;;9.27;;
7667;SDS011;3876;42.204;24.686;2022-08-16T05:27:22;10.63;;;9.77;;
7667;SDS011;3876;42.204;24.686;2022-08-16T05:29:49;10.30;;;9.50;;
7667;SDS011;3876;42.204;24.686;2022-08-16T05:32:16;10.70;;;9.80;;
7667;SDS011;3876;42.204;24.686;2022-08-16T05:34:43;10.10;;;9.27;;
7667;SDS011;3876;42.204;24.686;2022-08-16T05:37:10;10.53;;;9.50;;
7667;SDS011;3876;42.204;24.686;2022-08-16T05:39:37;10.13;;;9.10;;
7667;SDS011;3876;42.204;24.686;2022-08-16T05:42:05;10.10;;;9.10;;
7667;SDS011;3876;42.204;24.686;2022-08-16T05:44:32;9.67;;;9.00;;
7667;SDS011;3876;42.204;24.686;2022-08-16T05:46:59;10.37;;;9.20;;
7667;SDS011;3876;42.204;24.686;2022-08-16T05:49:27;10.87;;;9.93;;
7667;SDS011;3876;42.204;24.686;2022-08-16T05:51:55;11.87;;;8.70;;
7667;SDS011;3876;42.204;24.686;2022-08-16T05:54:24;9.07;;;8.47;;
7667;SDS011;3876;42.204;24.686;2022-08-16T05:56:52;9.83;;;8.93;;
7667;SDS011;3876;42.204;24.686;2022-08-16T05:59:22;9.30;;;8.50;;
7667;SDS011;3876;42.204;24.686;2022-08-16T06:01:49;8.50;;;7.80;;
7667;SDS011;3876;42.204;24.686;2022-08-16T06:04:17;8.60;;;8.00;;
7667;SDS011;3876;42.204;24.686;2022-08-16T06:06:45;9.93;;;9.07;;
7667;SDS011;3876;42.204;24.686;2022-08-16T06:09:13;9.30;;;8.70;;
7667;SDS011;3876;42.204;24.686;2022-08-16T06:11:41;10.33;;;9.33;;
7667;SDS011;3876;42.204;24.686;2022-08-16T06:14:08;8.67;;;8.13;;
7667;SDS011;3876;42.204;24.686;2022-08-16T06:16:36;9.50;;;8.90;;
7667;SDS011;3876;42.204;24.686;2022-08-16T06:19:03;8.30;;;7.80;;
7667;SDS011;3876;42.204;24.686;2022-08-16T06:21:30;9.10;;;8.40;;
7667;SDS011;3876;42.204;24.686;2022-08-16T06:23:57;8.43;;;7.87;;
7667;SDS011;3876;42.204;24.686;2022-08-16T06:26:23;8.77;;;8.27;;
7667;SDS011;3876;42.204;24.686;2022-08-16T06:28:50;8.30;;;7.80;;
7667;SDS011;3876;42.204;24.686;2022-08-16T06:31:17;9.57;;;8.73;;
7667;SDS011;3876;42.204;24.686;2022-08-16T06:33:45;9.77;;;8.97;;
7667;SDS011;3876;42.204;24.686;2022-08-16T06:36:12;8.30;;;7.80;;
7667;SDS011;3876;42.204;24.686;2022-08-16T06:38:40;8.67;;;8.10;;
7667;SDS011;3876;42.204;24.686;2022-08-16T06:41:08;8.30;;;7.80;;
7667;SDS011;3876;42.204;24.686;2022-08-16T06:43:35;11.93;;;8.80;;
7667;SDS011;3876;42.204;24.686;2022-08-16T06:46:04;10.20;;;9.03;;
7667;SDS011;3876;42.204;24.686;2022-08-16T06:48:35;8.60;;;8.10;;
7667;SDS011;3876;42.204;24.686;2022-08-16T06:51:04;8.03;;;7.40;;
7667;SDS011;3876;42.204;24.686;2022-08-16T06:53:32;9.10;;;8.40;;
7667;SDS011;3876;42.204;24.686;2022-08-16T06:56:00;8.47;;;7.83;;
7667;SDS011;3876;42.204;24.686;2022-08-16T06:58:31;8.17;;;7.57;;
7667;SDS011;3876;42.204;24.686;2022-08-16T07:00:58;8.70;;;8.20;;
7667;SDS011;3876;42.204;24.686;2022-08-16T07:03:25;8.43;;;7.80;;
7667;SDS011;3876;42.204;24.686;2022-08-16T07:05:52;7.93;;;7.33;;
7667;SDS011;3876;42.204;24.686;2022-08-16T07:08:22;8.55;;;7.90;;
7667;SDS011;3876;42.204;24.686;2022-08-16T07:10:49;7.43;;;7.03;;
7667;SDS011;3876;42.204;24.686;2022-08-16T07:13:16;7.93;;;7.20;;
7667;SDS011;3876;42.204;24.686;2022-08-16T07:15:44;7.75;;;7.05;;
7667;SDS011;3876;42.204;24.686;2022-08-16T07:18:14;7.85;;;6.97;;
7667;SDS011;3876;42.204;24.686;2022-08-16T07:20:41;8.57;;;7.97;;
7667;SDS011;3876;42.204;24.686;2022-08-16T07:23:08;10.80;;;8.40;;
7667;SDS011;3876;42.204;24.686;2022-08-16T07:25:37;8.50;;;7.82;;
7667;SDS011;3876;42.204;24.686;2022-08-16T07:28:04;8.98;;;8.48;;
7667;SDS011;3876;42.204;24.686;2022-08-16T07:30:31;7.47;;;7.05;;
7667;SDS011;3876;42.204;24.686;2022-08-16T07:33:00;7.95;;;7.55;;
7667;SDS011;3876;42.204;24.686;2022-08-16T07:35:28;8.23;;;7.72;;
7667;SDS011;3876;42.204;24.686;2022-08-16T07:37:55;9.05;;;8.13;;
7667;SDS011;3876;42.204;24.686;2022-08-16T07:40:22;8.50;;;7.65;;
7667;SDS011;3876;42.204;24.686;2022-08-16T07:42:51;8.20;;;7.75;;
7667;SDS011;3876;42.204;24.686;2022-08-16T07:45:18;8.30;;;7.50;;
7667;SDS011;3876;42.204;24.686;2022-08-16T07:47:45;6.32;;;6.03;;
7667;SDS011;3876;42.204;24.686;2022-08-16T07:50:12;6.45;;;6.05;;
7667;SDS011;3876;42.204;24.686;2022-08-16T07:52:41;7.95;;;6.90;;
7667;SDS011;3876;42.204;24.686;2022-08-16T07:55:09;6.82;;;6.20;;
7667;SDS011;3876;42.204;24.686;2022-08-16T07:57:38;7.35;;;6.95;;
7667;SDS011;3876;42.204;24.686;2022-08-16T08:00:07;5.70;;;5.30;;
7667;SDS011;3876;42.204;24.686;2022-08-16T08:02:35;6.50;;;6.10;;
7667;SDS011;3876;42.204;24.686;2022-08-16T08:05:03;6.80;;;5.75;;
7667;SDS011;3876;42.204;24.686;2022-08-16T08:07:31;6.18;;;5.72;;
7667;SDS011;3876;42.204;24.686;2022-08-16T08:09:58;6.32;;;6.03;;
7667;SDS011;3876;42.204;24.686;2022-08-16T08:12:24;5.90;;;5.60;;
7667;SDS011;3876;42.204;24.686;2022-08-16T08:14:51;5.10;;;4.90;;
7667;SDS011;3876;42.204;24.686;2022-08-16T08:17:19;6.03;;;5.72;;
7667;SDS011;3876;42.204;24.686;2022-08-16T08:19:47;5.93;;;5.57;;
7667;SDS011;3876;42.204;24.686;2022-08-16T08:22:14;8.57;;;6.18;;
7667;SDS011;3876;42.204;24.686;2022-08-16T08:24:41;6.25;;;5.85;;
7667;SDS011;3876;42.204;24.686;2022-08-16T08:27:08;5.43;;;5.13;;
7667;SDS011;3876;42.204;24.686;2022-08-16T08:29:35;5.45;;;5.15;;
7667;SDS011;3876;42.204;24.686;2022-08-16T08:32:03;4.50;;;4.30;;
7667;SDS011;3876;42.204;24.686;2022-08-16T08:34:33;5.18;;;4.88;;
7667;SDS011;3876;42.204;24.686;2022-08-16T08:37:00;5.57;;;5.07;;
7667;SDS011;3876;42.204;24.686;2022-08-16T08:39:27;5.03;;;4.75;;
7667;SDS011;3876;42.204;24.686;2022-08-16T08:41:54;5.38;;;5.07;;
7667;SDS011;3876;42.204;24.686;2022-08-16T08:44:21;5.60;;;5.28;;
7667;SDS011;3876;42.204;24.686;2022-08-16T08:46:48;5.75;;;5.45;;
7667;SDS011;3876;42.204;24.686;2022-08-16T08:49:15;7.78;;;5.18;;
7667;SDS011;3876;42.204;24.686;2022-08-16T08:51:44;5.32;;;5.03;;
7667;SDS011;3876;42.204;24.686;2022-08-16T08:54:11;5.38;;;4.95;;
7667;SDS011;3876;42.204;24.686;2022-08-16T08:56:38;5.85;;;5.20;;
7667;SDS011;3876;42.204;24.686;2022-08-16T08:59:06;5.32;;;5.13;;
7667;SDS011;3876;42.204;24.686;2022-08-16T09:01:34;6.30;;;4.93;;
7667;SDS011;3876;42.204;24.686;2022-08-16T09:04:03;5.65;;;5.35;;
7667;SDS011;3876;42.204;24.686;2022-08-16T09:06:31;5.25;;;4.97;;
7667;SDS011;3876;42.204;24.686;2022-08-16T09:09:00;5.85;;;5.53;;
7667;SDS011;3876;42.204;24.686;2022-08-16T09:11:28;6.00;;;5.60;;
7667;SDS011;3876;42.204;24.686;2022-08-16T09:13:55;5.00;;;4.70;;
7667;SDS011;3876;42.204;24.686;2022-08-16T09:16:22;5.10;;;4.90;;
7667;SDS011;3876;42.204;24.686;2022-08-16T09:18:50;4.85;;;4.55;;
7667;SDS011;3876;42.204;24.686;2022-08-16T09:21:17;6.15;;;5.60;;
7667;SDS011;3876;42.204;24.686;2022-08-16T09:23:45;5.40;;;4.95;;
7667;SDS011;3876;42.204;24.686;2022-08-16T09:26:13;5.90;;;5.50;;
7667;SDS011;3876;42.204;24.686;2022-08-16T09:28:41;5.70;;;5.25;;
7667;SDS011;3876;42.204;24.686;2022-08-16T09:31:09;5.05;;;4.85;;
7667;SDS011;3876;42.204;24.686;2022-08-16T09:33:36;5.03;;;4.80;;
7667;SDS011;3876;42.204;24.686;2022-08-16T09:36:03;4.63;;;4.43;;
7667;SDS011;3876;42.204;24.686;2022-08-16T09:38:31;4.95;;;4.75;;
7667;SDS011;3876;42.204;24.686;2022-08-16T09:40:59;4.60;;;4.40;;
7667;SDS011;3876;42.204;24.686;2022-08-16T09:43:29;5.20;;;4.90;;
7667;SDS011;3876;42.204;24.686;2022-08-16T09:45:57;5.07;;;4.57;;
